createdAt,value
2023-03-06T00:01:32.422Z,98454.88
2023-03-06T00:04:04.649Z,98452.28
2023-03-06T00:06:39.098Z,98453.34
2023-03-06T00:09:11.065Z,98452.53
2023-03-06T00:11:45.768Z,98456.50
2023-03-06T00:14:23.393Z,98459.25
2023-03-06T00:16:59.155Z,98457.47
2023-03-06T00:19:31.907Z,98458.31
2023-03-06T00:22:03.706Z,98457.34
2023-03-06T00:24:35.687Z,98457.88
2023-03-06T00:27:08.316Z,98456.78
2023-03-06T00:29:42.704Z,98450.63
2023-03-06T00:32:15.769Z,98446.91
2023-03-06T00:34:52.447Z,98434.69
2023-03-06T00:37:25.396Z,98442.94
2023-03-06T00:39:57.340Z,98437.03
2023-03-06T00:42:29.393Z,98437.84
2023-03-06T00:45:07.529Z,98433.34
2023-03-06T00:47:40.476Z,98428.00
2023-03-06T00:50:15.206Z,98428.94
2023-03-06T00:52:47.008Z,98421.69
2023-03-06T00:55:21.671Z,98419.34
2023-03-06T00:57:56.628Z,98409.09
2023-03-06T01:00:28.749Z,98413.06
2023-03-06T01:03:06.238Z,98404.00
2023-03-06T01:05:38.873Z,98403.31
2023-03-06T01:08:14.944Z,98399.34
2023-03-06T01:10:46.757Z,98399.34
2023-03-06T01:13:25.236Z,98396.75
2023-03-06T01:16:09.047Z,98390.03
2023-03-06T01:18:44.035Z,98392.50
2023-03-06T01:21:16.924Z,98381.94
2023-03-06T01:23:49.060Z,98394.66
2023-03-06T01:26:24.234Z,98386.72
2023-03-06T01:28:59.686Z,98381.66
2023-03-06T01:31:33.696Z,98380.00
2023-03-06T01:34:05.582Z,98375.38
2023-03-06T01:36:37.754Z,98377.56
2023-03-06T01:39:10.617Z,98376.44
2023-03-06T01:41:42.467Z,98371.66
2023-03-06T01:44:14.977Z,98366.75
2023-03-06T01:46:47.148Z,98373.03
2023-03-06T01:49:22.573Z,98368.25
2023-03-06T01:52:02.621Z,98367.56
2023-03-06T01:54:51.705Z,98357.72
2023-03-06T01:57:36.613Z,98364.13
2023-03-06T02:00:11.156Z,98360.03
2023-03-06T02:03:06.002Z,98356.44
2023-03-06T02:05:39.472Z,98354.84
2023-03-06T02:08:18.985Z,98356.63
2023-03-06T02:11:15.360Z,98347.84
2023-03-06T02:13:49.079Z,98345.91
2023-03-06T02:16:25.850Z,98345.50
2023-03-06T02:19:01.441Z,98352.50
2023-03-06T02:21:36.229Z,98345.25
2023-03-06T02:24:22.548Z,98340.16
2023-03-06T02:26:56.381Z,98340.03
2023-03-06T02:29:32.246Z,98338.94
2023-03-06T02:32:07.502Z,98339.06
2023-03-06T02:34:41.979Z,98339.91
2023-03-06T02:37:14.122Z,98338.13
2023-03-06T02:39:52.171Z,98333.19
2023-03-06T02:42:28.982Z,98329.63
2023-03-06T02:45:03.695Z,98321.13
2023-03-06T02:47:35.541Z,98320.84
2023-03-06T02:50:07.760Z,98319.75
2023-03-06T02:52:39.621Z,98323.19
2023-03-06T02:55:11.712Z,98324.66
2023-03-06T02:57:43.666Z,98322.88
2023-03-06T03:00:19.236Z,98324.41
2023-03-06T03:02:51.572Z,98323.44
2023-03-06T03:05:24.996Z,98317.72
2023-03-06T03:08:04.366Z,98314.28
2023-03-06T03:10:36.277Z,98317.56
2023-03-06T03:13:09.134Z,98312.34
2023-03-06T03:15:44.425Z,98312.50
2023-03-06T03:18:16.255Z,98309.91
2023-03-06T03:20:48.043Z,98307.56
2023-03-06T03:23:19.894Z,98306.06
2023-03-06T03:25:51.939Z,98300.72
2023-03-06T03:28:26.285Z,98300.56
2023-03-06T03:31:07.656Z,98294.69
2023-03-06T03:33:43.927Z,98299.75
2023-03-06T03:36:18.284Z,98298.09
2023-03-06T03:38:56.042Z,98293.72
2023-03-06T03:41:27.871Z,98293.88
2023-03-06T03:44:08.973Z,98290.72
2023-03-06T03:46:44.619Z,98285.38
2023-03-06T03:49:22.163Z,98289.91
2023-03-06T03:51:54.226Z,98279.50
2023-03-06T03:54:27.549Z,98278.94
2023-03-06T03:57:00.449Z,98270.47
2023-03-06T03:59:37.634Z,98271.56
2023-03-06T04:02:22.279Z,98268.97
2023-03-06T04:05:02.642Z,98264.72
2023-03-06T04:07:34.570Z,98266.66
2023-03-06T04:10:11.473Z,98265.56
2023-03-06T04:12:43.300Z,98255.84
2023-03-06T04:15:23.167Z,98258.03
2023-03-06T04:17:56.231Z,98260.78
2023-03-06T04:20:32.505Z,98259.53
2023-03-06T04:23:05.664Z,98248.59
2023-03-06T04:25:39.139Z,98255.59
2023-03-06T04:28:16.961Z,98259.00
2023-03-06T04:30:52.538Z,98246.38
2023-03-06T04:33:25.907Z,98248.47
2023-03-06T04:35:59.406Z,98248.16
2023-03-06T04:38:34.731Z,98248.88
2023-03-06T04:41:09.268Z,98239.41
2023-03-06T04:43:44.252Z,98243.38
2023-03-06T04:46:16.183Z,98244.50
2023-03-06T04:48:48.040Z,98240.91
2023-03-06T04:51:19.828Z,98241.09
2023-03-06T04:53:52.423Z,98243.81
2023-03-06T04:56:24.349Z,98235.06
2023-03-06T04:59:06.339Z,98238.59
2023-03-06T05:01:38.164Z,98232.44
2023-03-06T05:04:34.916Z,98229.16
2023-03-06T05:07:06.620Z,98231.75
2023-03-06T05:09:39.207Z,98230.94
2023-03-06T05:12:11.060Z,98228.19
2023-03-06T05:14:43.901Z,98222.03
2023-03-06T05:17:21.833Z,98226.13
2023-03-06T05:19:54.867Z,98222.03
2023-03-06T05:22:26.763Z,98223.81
2023-03-06T05:24:58.633Z,98220.28
2023-03-06T05:27:33.587Z,98222.44
2023-03-06T05:30:05.476Z,98220.09
2023-03-06T05:32:41.624Z,98222.88
2023-03-06T05:35:21.894Z,98226.13
2023-03-06T05:37:53.709Z,98217.25
2023-03-06T05:40:26.115Z,98218.50
2023-03-06T05:42:58.060Z,98222.31
2023-03-06T05:45:29.851Z,98227.66
2023-03-06T05:48:01.967Z,98231.63
2023-03-06T05:50:33.889Z,98228.47
2023-03-06T05:53:09.720Z,98236.81
2023-03-06T05:55:41.734Z,98223.78
2023-03-06T05:58:13.496Z,98225.19
2023-03-06T06:00:45.315Z,98224.63
2023-03-06T06:03:17.076Z,98230.22
2023-03-06T06:08:45.330Z,98230.31
2023-03-06T06:11:18.560Z,98234.53
2023-03-06T06:13:50.516Z,98231.22
2023-03-06T06:16:22.571Z,98228.81
2023-03-06T06:18:54.405Z,98225.25
2023-03-06T06:21:26.206Z,98232.88
2023-03-06T06:23:58.010Z,98227.06
2023-03-06T06:26:30.432Z,98229.13
2023-03-06T06:29:04.638Z,98224.63
2023-03-06T06:31:46.781Z,98223.78
2023-03-06T06:34:19.191Z,98221.56
2023-03-06T06:36:53.504Z,98229.69
2023-03-06T06:39:25.619Z,98219.25
2023-03-06T06:42:21.719Z,98223.31
2023-03-06T06:44:55.032Z,98221.97
2023-03-06T06:47:28.861Z,98215.06
2023-03-06T06:50:00.748Z,98210.31
2023-03-06T06:52:35.088Z,98211.97
2023-03-06T06:55:08.115Z,98212.94
2023-03-06T06:57:42.067Z,98203.31
2023-03-06T07:00:16.923Z,98211.59
2023-03-06T07:02:49.429Z,98214.50
2023-03-06T07:05:22.187Z,98210.09
2023-03-06T07:07:54.107Z,98210.72
2023-03-06T07:10:28.968Z,98210.63
2023-03-06T07:13:01.755Z,98214.06
2023-03-06T07:15:34.116Z,98207.84
2023-03-06T07:18:11.250Z,98205.06
2023-03-06T07:20:43.362Z,98204.38
2023-03-06T07:23:18.339Z,98205.78
2023-03-06T07:25:51.314Z,98214.09
2023-03-06T07:28:23.877Z,98211.28
2023-03-06T07:30:55.859Z,98201.16
2023-03-06T07:33:31.104Z,98203.81
2023-03-06T07:36:04.040Z,98193.97
2023-03-06T07:38:36.086Z,98198.16
2023-03-06T07:41:13.348Z,98190.81
2023-03-06T07:43:46.509Z,98189.63
2023-03-06T07:46:18.559Z,98198.72
2023-03-06T07:48:50.797Z,98191.72
2023-03-06T07:51:23.020Z,98196.09
2023-03-06T07:53:54.928Z,98195.22
2023-03-06T07:56:26.852Z,98198.63
2023-03-06T07:58:58.668Z,98203.28
2023-03-06T08:01:31.779Z,98189.09
2023-03-06T08:04:03.828Z,98189.31
2023-03-06T08:06:35.761Z,98190.94
2023-03-06T08:09:08.699Z,98191.41
2023-03-06T08:11:41.408Z,98190.81
2023-03-06T08:14:16.540Z,98185.59
2023-03-06T08:16:53.210Z,98196.59
2023-03-06T08:19:25.054Z,98189.94
2023-03-06T08:21:59.897Z,98191.31
2023-03-06T08:24:33.021Z,98178.19
2023-03-06T08:27:04.914Z,98179.84
2023-03-06T08:29:36.796Z,98185.22
2023-03-06T08:32:12.320Z,98176.88
2023-03-06T08:34:46.168Z,98173.66
2023-03-06T08:37:21.982Z,98171.75
2023-03-06T08:39:53.887Z,98178.34
2023-03-06T08:42:25.727Z,98185.41
2023-03-06T08:44:57.712Z,98185.56
2023-03-06T08:47:29.563Z,98186.19
2023-03-06T08:50:01.640Z,98178.25
2023-03-06T08:52:33.451Z,98183.50
2023-03-06T08:55:07.220Z,98179.91
2023-03-06T08:57:39.225Z,98181.25
2023-03-06T09:00:15.377Z,98183.22
2023-03-06T09:02:47.489Z,98179.66
2023-03-06T09:05:20.441Z,98176.44
2023-03-06T09:07:55.236Z,98180.19
2023-03-06T09:10:30.052Z,98174.03
2023-03-06T09:13:03.876Z,98178.59
2023-03-06T09:15:43.013Z,98171.91
2023-03-06T09:18:17.746Z,98172.41
2023-03-06T09:20:52.316Z,98180.59
2023-03-06T09:23:24.353Z,98189.59
2023-03-06T09:25:58.763Z,98175.19
2023-03-06T09:28:30.791Z,98179.28
2023-03-06T09:31:12.050Z,98163.03
2023-03-06T09:33:45.069Z,98167.94
2023-03-06T09:36:22.641Z,98169.72
2023-03-06T09:38:54.664Z,98165.41
2023-03-06T09:41:32.161Z,98166.34
2023-03-06T09:44:18.004Z,98165.31
2023-03-06T09:46:58.942Z,98170.94
2023-03-06T09:49:38.742Z,98167.19
2023-03-06T09:52:31.975Z,98160.81
2023-03-06T09:55:41.075Z,98159.88
2023-03-06T09:58:27.386Z,98160.22
2023-03-06T10:01:15.980Z,98157.56
2023-03-06T10:04:32.174Z,98155.81
2023-03-06T10:07:27.781Z,98154.03
2023-03-06T10:10:06.855Z,98155.69
2023-03-06T10:12:53.508Z,98156.53
2023-03-06T10:15:32.447Z,98157.34
2023-03-06T10:18:05.474Z,98152.28
2023-03-06T10:20:52.640Z,98158.16
2023-03-06T10:23:39.854Z,98150.16
2023-03-06T10:26:22.908Z,98149.00
2023-03-06T10:29:02.579Z,98145.09
2023-03-06T10:31:34.911Z,98153.41
2023-03-06T10:34:22.786Z,98152.78
2023-03-06T10:36:58.607Z,98157.84
2023-03-06T10:39:33.387Z,98149.34
2023-03-06T10:42:10.745Z,98153.94
2023-03-06T10:44:44.355Z,98151.13
2023-03-06T10:47:31.934Z,98148.84
2023-03-06T10:50:27.319Z,98150.50
2023-03-06T10:53:06.449Z,98140.16
2023-03-06T10:55:42.679Z,98149.34
2023-03-06T10:58:40.695Z,98147.53
2023-03-06T11:01:21.659Z,98140.00
2023-03-06T11:03:54.229Z,98133.44
2023-03-06T11:06:35.163Z,98132.09
2023-03-06T11:09:16.034Z,98125.22
2023-03-06T11:11:48.028Z,98123.22
2023-03-06T11:14:27.433Z,98126.13
2023-03-06T11:17:01.414Z,98123.34
2023-03-06T11:19:33.736Z,98127.13
2023-03-06T11:22:21.111Z,98115.97
2023-03-06T11:24:55.523Z,98107.41
2023-03-06T11:27:38.186Z,98107.03
2023-03-06T11:30:26.430Z,98103.50
2023-03-06T11:33:08.882Z,98097.50
2023-03-06T11:35:51.018Z,98104.59
2023-03-06T11:38:37.978Z,98097.56
2023-03-06T11:41:47.289Z,98087.28
2023-03-06T11:44:24.393Z,98095.97
2023-03-06T11:50:15.269Z,98075.34
2023-03-06T11:52:58.759Z,98076.16
2023-03-06T11:55:44.157Z,98070.50
2023-03-06T11:58:44.302Z,98056.41
2023-03-06T12:01:31.313Z,98057.50
2023-03-06T12:04:36.538Z,98058.69
2023-03-06T12:07:21.438Z,98053.28
2023-03-06T12:10:08.523Z,98045.53
2023-03-06T12:13:01.977Z,98045.00
2023-03-06T12:15:53.942Z,98038.88
2023-03-06T12:19:02.142Z,98042.66
2023-03-06T12:21:47.331Z,98039.75
2023-03-06T12:24:30.046Z,98029.31
2023-03-06T12:27:25.865Z,98027.06
2023-03-06T12:30:26.056Z,98021.81
2023-03-06T12:33:28.714Z,98029.25
2023-03-06T12:36:44.269Z,98020.75
2023-03-06T12:39:54.104Z,98021.94
2023-03-06T12:43:08.047Z,98013.41
2023-03-06T12:45:44.337Z,98009.88
2023-03-06T12:48:26.920Z,98004.72
2023-03-06T12:51:03.194Z,98002.72
2023-03-06T12:53:37.279Z,98010.50
2023-03-06T12:56:13.643Z,98005.25
2023-03-06T12:58:56.801Z,97999.81
2023-03-06T13:02:00.489Z,98002.59
2023-03-06T13:04:53.907Z,98006.97
2023-03-06T13:07:34.610Z,98001.44
2023-03-06T13:10:30.178Z,97997.34
2023-03-06T13:13:05.212Z,97995.47
2023-03-06T13:15:47.103Z,97998.53
2023-03-06T13:18:25.125Z,98008.53
2023-03-06T13:20:58.108Z,98000.81
2023-03-06T13:23:35.234Z,97997.31
2023-03-06T13:26:13.159Z,97997.56
2023-03-06T13:28:51.444Z,98003.66
2023-03-06T13:31:56.116Z,98006.44
2023-03-06T13:34:31.959Z,98001.81
2023-03-06T13:37:23.425Z,98002.81
2023-03-06T13:39:55.583Z,97991.47
2023-03-06T13:42:40.210Z,97986.13
2023-03-06T13:45:26.147Z,97987.88
2023-03-06T13:48:21.408Z,97979.97
2023-03-06T13:50:56.534Z,97973.06
2023-03-06T13:53:41.484Z,97972.63
2023-03-06T13:56:51.007Z,97964.16
2023-03-06T14:00:25.197Z,97971.88
2023-03-06T14:03:47.985Z,97963.94
2023-03-06T14:06:37.637Z,97962.94
2023-03-06T14:09:22.888Z,97969.75
2023-03-06T14:12:08.260Z,97964.13
2023-03-06T14:14:49.517Z,97960.34
2023-03-06T14:17:29.850Z,97960.00
2023-03-06T14:20:14.254Z,97965.84
2023-03-06T14:22:49.915Z,97964.25
2023-03-06T14:25:31.403Z,97962.63
2023-03-06T14:28:13.799Z,97973.56
2023-03-06T14:30:51.040Z,97966.22
2023-03-06T14:33:44.398Z,97972.13
2023-03-06T14:36:20.394Z,97964.16
2023-03-06T14:38:59.512Z,97960.06
2023-03-06T14:41:34.681Z,97957.44
2023-03-06T14:44:22.869Z,97957.59
2023-03-06T14:46:57.092Z,97956.44
2023-03-06T14:49:29.117Z,97962.63
2023-03-06T14:52:01.385Z,97958.44
2023-03-06T14:54:37.118Z,97961.78
2023-03-06T14:57:20.256Z,97957.34
2023-03-06T14:59:58.235Z,97957.91
2023-03-06T15:02:34.061Z,97958.28
2023-03-06T15:05:17.840Z,97954.63
2023-03-06T15:07:52.107Z,97960.34
2023-03-06T15:10:33.200Z,97956.06
2023-03-06T15:13:24.359Z,97967.72
2023-03-06T15:16:14.740Z,97973.94
2023-03-06T15:18:59.108Z,97985.81
2023-03-06T15:21:38.896Z,97988.13
2023-03-06T15:24:34.366Z,97983.81
2023-03-06T15:27:18.084Z,97997.38
2023-03-06T15:29:50.270Z,97993.31
2023-03-06T15:32:32.670Z,97996.97
2023-03-06T15:35:32.816Z,97988.00
2023-03-06T15:38:24.312Z,98004.06
2023-03-06T15:41:00.082Z,97994.75
2023-03-06T15:43:38.008Z,98007.50
2023-03-06T15:46:11.463Z,98009.25
2023-03-06T15:49:03.240Z,98007.09
2023-03-06T15:51:37.973Z,98012.25
2023-03-06T15:54:13.933Z,98019.84
2023-03-06T15:56:49.085Z,98029.72
2023-03-06T15:59:33.462Z,98010.47
2023-03-06T16:02:18.798Z,98003.66
2023-03-06T16:04:54.051Z,97993.19
2023-03-06T16:07:29.212Z,97984.19
2023-03-06T16:10:03.672Z,97986.19
2023-03-06T16:12:36.039Z,97992.53
2023-03-06T16:15:30.471Z,97994.69
2023-03-06T16:18:02.354Z,97996.63
2023-03-06T16:20:34.206Z,98001.53
2023-03-06T16:23:10.796Z,98004.16
2023-03-06T16:25:48.601Z,97997.47
2023-03-06T16:28:20.763Z,97999.75
2023-03-06T16:30:55.548Z,97999.75
2023-03-06T16:33:27.884Z,98003.50
2023-03-06T16:36:01.158Z,98002.34
2023-03-06T16:38:33.109Z,98005.31
2023-03-06T16:41:08.030Z,98005.47
2023-03-06T16:43:39.867Z,98004.34
2023-03-06T16:46:17.145Z,98002.53
2023-03-06T16:48:49.125Z,98004.34
2023-03-06T16:51:26.693Z,98003.19
2023-03-06T16:53:59.431Z,97996.81
2023-03-06T16:56:35.398Z,97992.25
2023-03-06T16:59:10.116Z,98004.16
2023-03-06T17:01:43.439Z,98001.88
2023-03-06T17:04:15.792Z,98008.38
2023-03-06T17:06:47.926Z,98008.25
2023-03-06T17:09:29.833Z,98012.97
2023-03-06T17:12:01.971Z,98012.78
2023-03-06T17:14:38.513Z,98016.06
2023-03-06T17:17:10.424Z,98019.97
2023-03-06T17:19:50.775Z,98023.25
2023-03-06T17:22:24.880Z,98027.31
2023-03-06T17:24:58.296Z,98030.59
2023-03-06T17:27:30.405Z,98031.38
2023-03-06T17:30:03.111Z,98030.72
2023-03-06T17:32:37.884Z,98028.91
2023-03-06T17:35:10.814Z,98034.31
2023-03-06T17:37:42.698Z,98036.75
2023-03-06T17:40:15.782Z,98037.25
2023-03-06T17:42:47.574Z,98037.41
2023-03-06T17:45:19.400Z,98034.31
2023-03-06T17:47:56.854Z,98041.00
2023-03-06T17:50:28.697Z,98042.78
2023-03-06T17:53:00.459Z,98035.78
2023-03-06T17:55:32.710Z,98039.72
2023-03-06T17:58:05.684Z,98036.63
2023-03-06T18:00:38.790Z,98038.09
2023-03-06T18:03:13.181Z,98039.38
2023-03-06T18:05:45.508Z,98046.06
2023-03-06T18:08:20.508Z,98046.06
2023-03-06T18:10:52.922Z,98037.13
2023-03-06T18:13:24.886Z,98044.28
2023-03-06T18:15:57.277Z,98047.72
2023-03-06T18:18:34.960Z,98047.88
2023-03-06T18:21:11.178Z,98044.09
2023-03-06T18:23:43.213Z,98042.94
2023-03-06T18:26:21.892Z,98037.03
2023-03-06T18:28:56.273Z,98048.94
2023-03-06T18:31:39.224Z,98053.19
2023-03-06T18:34:13.889Z,98044.06
2023-03-06T18:36:53.120Z,98054.50
2023-03-06T18:39:27.826Z,98052.72
2023-03-06T18:41:59.998Z,98057.78
2023-03-06T18:44:34.650Z,98055.69
2023-03-06T18:47:06.672Z,98052.25
2023-03-06T18:49:40.565Z,98050.72
2023-03-06T18:52:16.343Z,98050.09
2023-03-06T18:54:50.942Z,98052.53
2023-03-06T18:57:24.065Z,98057.31
2023-03-06T19:00:02.299Z,98051.75
2023-03-06T19:02:47.479Z,98056.78
2023-03-06T19:05:22.092Z,98056.91
2023-03-06T19:07:58.573Z,98053.47
2023-03-06T19:10:31.655Z,98056.78
2023-03-06T19:13:05.295Z,98053.97
2023-03-06T19:15:45.877Z,98059.56
2023-03-06T19:18:18.526Z,98053.53
2023-03-06T19:20:56.995Z,98054.16
2023-03-06T19:23:32.071Z,98057.13
2023-03-06T19:26:07.595Z,98057.31
2023-03-06T19:28:45.096Z,98055.81
2023-03-06T19:31:25.266Z,98056.31
2023-03-06T19:34:00.332Z,98059.72
2023-03-06T19:36:34.328Z,98060.88
2023-03-06T19:39:07.895Z,98055.19
2023-03-06T19:41:39.840Z,98051.25
2023-03-06T19:44:13.001Z,98047.69
2023-03-06T19:46:44.934Z,98048.16
2023-03-06T19:49:18.261Z,98051.59
2023-03-06T19:51:50.211Z,98056.47
2023-03-06T19:54:23.588Z,98058.97
2023-03-06T19:56:55.498Z,98064.53
2023-03-06T19:59:31.241Z,98055.91
2023-03-06T20:02:03.790Z,98060.81
2023-03-06T20:04:36.916Z,98060.50
2023-03-06T20:07:11.660Z,98063.75
2023-03-06T20:09:43.836Z,98065.06
2023-03-06T20:12:21.785Z,98061.63
2023-03-06T20:14:53.827Z,98065.22
2023-03-06T20:17:26.128Z,98067.97
2023-03-06T20:19:59.197Z,98066.19
2023-03-06T20:22:38.565Z,98060.78
2023-03-06T20:25:10.711Z,98063.72
2023-03-06T20:27:52.145Z,98067.00
2023-03-06T20:30:31.521Z,98067.31
2023-03-06T20:33:10.637Z,98065.03
2023-03-06T20:35:44.498Z,98072.19
2023-03-06T20:38:16.667Z,98068.63
2023-03-06T20:40:48.614Z,98073.31
2023-03-06T20:43:26.404Z,98078.25
2023-03-06T20:46:02.694Z,98078.88
2023-03-06T20:48:34.798Z,98071.72
2023-03-06T20:51:32.156Z,98077.22
2023-03-06T20:54:04.171Z,98073.16
2023-03-06T20:56:39.638Z,98076.13
2023-03-06T20:59:12.615Z,98076.94
2023-03-06T21:01:46.075Z,98068.09
2023-03-06T21:04:18.075Z,98065.44
2023-03-06T21:06:55.745Z,98062.19
2023-03-06T21:09:27.660Z,98067.56
2023-03-06T21:11:59.882Z,98065.25
2023-03-06T21:14:34.900Z,98075.88
2023-03-06T21:17:06.767Z,98066.38
2023-03-06T21:19:38.636Z,98070.13
2023-03-06T21:22:10.774Z,98059.69
2023-03-06T21:24:43.619Z,98056.56
2023-03-06T21:27:15.980Z,98061.47
2023-03-06T21:29:50.376Z,98055.41
2023-03-06T21:32:25.380Z,98057.69
2023-03-06T21:34:57.326Z,98059.28
2023-03-06T21:37:32.313Z,98058.50
2023-03-06T21:40:08.008Z,98044.28
2023-03-06T21:42:40.737Z,98058.13
2023-03-06T21:45:13.696Z,98059.13
2023-03-06T21:47:49.025Z,98054.88
2023-03-06T21:50:22.158Z,98059.41
2023-03-06T21:52:56.448Z,98058.09
2023-03-06T21:55:29.381Z,98055.31
2023-03-06T21:58:10.166Z,98052.56
2023-03-06T22:00:47.297Z,98042.63
2023-03-06T22:03:19.256Z,98046.22
2023-03-06T22:05:52.177Z,98048.81
2023-03-06T22:08:25.508Z,98052.41
2023-03-06T22:11:05.457Z,98043.91
2023-03-06T22:13:40.357Z,98043.75
2023-03-06T22:16:15.678Z,98041.81
2023-03-06T22:18:49.538Z,98045.25
2023-03-06T22:21:22.814Z,98032.00
2023-03-06T22:23:59.920Z,98044.78
2023-03-06T22:26:31.955Z,98037.75
2023-03-06T22:29:07.033Z,98031.56
2023-03-06T22:31:40.451Z,98038.78
2023-03-06T22:34:15.645Z,98025.53
2023-03-06T22:36:47.790Z,98038.28
2023-03-06T22:39:20.013Z,98034.88
2023-03-06T22:41:54.577Z,98034.19
2023-03-06T22:44:29.344Z,98034.88
2023-03-06T22:47:01.226Z,98033.91
2023-03-06T22:49:33.457Z,98030.63
2023-03-06T22:52:07.940Z,98033.84
2023-03-06T22:54:48.771Z,98029.78
2023-03-06T22:57:20.649Z,98021.94
2023-03-06T22:59:55.509Z,98031.09
2023-03-06T23:02:32.065Z,98019.97
2023-03-06T23:05:04.121Z,98017.50
2023-03-06T23:07:36.505Z,98023.69
2023-03-06T23:10:09.109Z,98015.53
2023-03-06T23:12:59.789Z,98020.13
2023-03-06T23:15:49.975Z,98020.66
2023-03-06T23:18:41.138Z,98013.63
2023-03-06T23:21:31.784Z,98026.03
2023-03-06T23:24:25.354Z,98023.75
2023-03-06T23:26:57.094Z,98022.56
2023-03-06T23:29:30.837Z,98033.81
2023-03-06T23:32:06.608Z,98024.38
2023-03-06T23:34:43.067Z,98020.41
2023-03-06T23:37:16.105Z,98021.38
2023-03-06T23:39:50.602Z,98026.78
2023-03-06T23:42:25.680Z,98018.78
2023-03-06T23:45:03.395Z,98019.44
2023-03-06T23:47:35.362Z,98011.47
2023-03-06T23:50:07.707Z,98015.72
2023-03-06T23:52:40.373Z,98011.75
2023-03-06T23:55:12.433Z,98007.50
2023-03-06T23:57:47.504Z,98007.16
